Terminal Aerodrome Forecast
Issued by NWS Chicago, IL

Home | Current Version | Previous Version | Text Only | Print | Product List | Glossary Off
Versions: 1 2 3 4 5 6 7 8 9 10 11 12 13 14 15 16 17 18 19 20 21 22 23 24 25 26 27 28 29 30 31 32

000
FTUS43 KLOT 281952 AAA
TAFRFD
TAF AMD
KRFD 281952Z 2820/2918 21007KT P6SM VCSH FEW035 BKN120
     FM282130 18009KT P6SM -SHRA VCTS FEW035CB BKN060 OVC100
     FM290000 14008KT 4SM -SHRA SCT025 OVC035
     FM290700 08009KT 3SM BR VCSH SCT005 OVC007
     FM291400 07008KT P6SM SCT008 OVC015=

USA.gov is the U.S. government's official web portal to all federal, state and local government web resources and services.